Portada
METAR-TAF:

METAR-TAF

Aeropuertos :

South Alabama Regional Airport

Andalusia, Alabama, Estados Unidos

latitud: 31-18-00N, longitud: 086-23-00W, altitud: 94 m

Observación

El informe se hizo hace 42 minutos, a las 17:56 UTC
Viento 6 kt del norte
Temperatura 13°C
Humedad 77%
Presión 1016 hPa
Visibilidad: 16.1 km
Cielo cubierto a una altura de 1300 ft

METAR: K79J 271756Z AUTO 36006KT 10SM OVC013 13/09 A3000 RMK AO2 SLP155 T01330089 10139 20094 58007

Hora: 12:38 (18:38 UTC)


TAF: falta

Observaciones y pronósticos meteorológicos de más de 4000 aeropuertos (mensajes METAR y TAF).

Los puntos amarillos y rojos representan las estaciones disponibles.

Ponga el ratón en el punto deseado para ver el nombre de la estación.

Haga clic para ver las observaciones y los pronósticos meteorológicos.

Para cambiar el mapa : haga clic en los botones verdes con una cruz de color negro para hacer un zoom, en el botón verde con un guión para alejar o en las flechas verdes para mapas adyacentes.


METAR-TAF: